Warning: Javascript must be enabled to use all the features on this page!


Page Loading - Please Wait...

Click to hideNews Bulletins
Click to hide state-specific text

Welcome to the NWIS-Web for the Arizona Water Science Center


The majority of USGS Gaging Stations are funded though a cooperative program between the USGS other interested agencies.
Follow this link for information on the Cooperative Water Program with the USGS.


Threatened and Endangered USGS Gaging Stations in Arizona
Colorado Basin River Forecast Center - provided by the National Weather Service, AHPS. CBRFC on Google Maps.
Arizona Water Science Center Home Page

USGS 09471000 SAN PEDRO RIVER AT CHARLESTON, AZ.

PROVISIONAL DATA SUBJECT TO REVISION

Click to hidestation-specific text
Station operated in cooperation with Cochise County, the Bureau of Land Management, and the Arizona Department of Water Resources.

HIGH DATA RATE (Site data are transmitted & updated hourly)
rainfall Arrow
This station managed by the Tucson Field Office; USGS, AZ-WSC.

Available Parameters Available Period
All 3 Available Parameters for this site
  
00065 Gage height [Radar Stage Sensor] 2015-03-31  2015-07-29
00060 Discharge 2007-10-01  2015-07-29
00045 Precipitation 2015-03-31  2015-07-29

Graph
Graph w/ stats
Graph w/o stats
Graph w/ (up to 3) parms
Table
Tab-separated
Days  (7)
 

  -- or --
Begin date
 

End date
 

Summary of all available data for this site
Instantaneous-data availability statement






Date / Time




Gage
height,
feet,
[Radar
Stage
Sensor]




Dis-
charge,
ft3/s,



Precip-
itation
total,
inches,
07/23/2015 00:00 MST2.26P  22.2P  0.00P  
07/23/2015 00:15 MST2.25P  21.4P  0.00P  
07/23/2015 00:30 MST2.26P  22.2P  0.00P  
07/23/2015 00:45 MST2.25P  21.4P  0.00P  
07/23/2015 01:00 MST2.25P  21.4P  0.00P  
07/23/2015 01:15 MST2.25P  21.4P  0.00P  
07/23/2015 01:30 MST2.24P  20.7P  0.00P  
07/23/2015 01:45 MST2.24P  20.7P  0.00P  
07/23/2015 02:00 MST2.23P  19.9P  0.00P  
07/23/2015 02:15 MST2.23P  19.9P  0.00P  
07/23/2015 02:30 MST2.24P  20.7P  0.00P  
07/23/2015 02:45 MST2.23P  19.9P  0.00P  
07/23/2015 03:00 MST2.23P  19.9P  0.00P  
07/23/2015 03:15 MST2.21P  18.5P  0.00P  
07/23/2015 03:30 MST2.23P  19.9P  0.00P  
07/23/2015 03:45 MST2.21P  18.5P  0.00P  
07/23/2015 04:00 MST2.21P  18.5P  0.00P  
07/23/2015 04:15 MST2.21P  18.5P  0.00P  
07/23/2015 04:30 MST2.20P  17.9P  0.00P  
07/23/2015 04:45 MST2.20P  17.9P  0.00P  
07/23/2015 05:00 MST2.19P  17.2P  0.00P  
07/23/2015 05:15 MST2.19P  17.2P  0.00P  
07/23/2015 05:30 MST2.19P  17.2P  0.00P  
07/23/2015 05:45 MST2.19P  17.2P  0.00P  
07/23/2015 06:00 MST2.18P  16.6P  0.00P  
07/23/2015 06:15 MST2.18P  16.6P  0.00P  
07/23/2015 06:30 MST2.17P  16.0P  0.00P  
07/23/2015 06:45 MST2.18P  16.6P  0.00P  
07/23/2015 07:00 MST2.17P  16.0P  0.00P  
07/23/2015 07:15 MST2.17P  16.0P  0.00P  
07/23/2015 07:30 MST2.18P  16.6P  0.00P  
07/23/2015 07:45 MST2.17P  16.0P  0.00P  
07/23/2015 08:00 MST2.17P  16.0P  0.01P  
07/23/2015 08:15 MST2.16P  15.4P  0.00P  
07/23/2015 08:30 MST2.16P  15.4P  0.01P  
07/23/2015 08:45 MST2.17P  16.0P  0.00P  
07/23/2015 09:00 MST2.16P  15.4P  0.00P  
07/23/2015 09:15 MST2.16P  15.4P  0.00P  
07/23/2015 09:30 MST2.16P  15.4P  0.00P  
07/23/2015 09:45 MST2.16P  15.4P  0.00P  
07/23/2015 10:00 MST2.16P  15.4P  0.00P  
07/23/2015 10:15 MST2.14P  14.2P  0.00P  
07/23/2015 10:30 MST2.16P  15.4P  0.00P  
07/23/2015 10:45 MST2.13P  13.6P  0.00P  
07/23/2015 11:00 MST2.15P  14.8P  0.00P  
07/23/2015 11:15 MST2.13P  13.6P  0.00P  
07/23/2015 11:30 MST2.14P  14.2P  0.00P  
07/23/2015 11:45 MST2.13P  13.6P  0.00P  
07/23/2015 12:00 MST2.14P  14.2P  0.00P  
07/23/2015 12:15 MST2.14P  14.2P  0.00P  
07/23/2015 12:30 MST2.14P  14.2P  0.00P  
07/23/2015 12:45 MST2.12P  13.1P  0.00P  
07/23/2015 13:00 MST2.13P  13.6P  0.00P  
07/23/2015 13:15 MST2.12P  13.1P  0.00P  
07/23/2015 13:30 MST2.11P  12.6P  0.00P  
07/23/2015 13:45 MST2.10P  12.1P  0.00P  
07/23/2015 14:00 MST2.11P  12.6P  0.00P  
07/23/2015 14:15 MST2.12P  13.1P  0.00P  
07/23/2015 14:30 MST2.10P  12.1P  0.00P  
07/23/2015 14:45 MST2.11P  12.6P  0.00P  
07/23/2015 15:00 MST2.08P  11.1P  0.00P  
07/23/2015 15:15 MST2.08P  11.1P  0.00P  
07/23/2015 15:30 MST2.08P  11.1P  0.00P  
07/23/2015 15:45 MST2.10P  12.1P  0.00P  
07/23/2015 16:00 MST2.07P  10.6P  0.00P  
07/23/2015 16:15 MST2.08P  11.1P  0.00P  
07/23/2015 16:30 MST2.09P  11.6P  0.00P  
07/23/2015 16:45 MST2.08P  11.1P  0.00P  
07/23/2015 17:00 MST2.09P  11.6P  0.00P  
07/23/2015 17:15 MST2.10P  12.1P  0.00P  
07/23/2015 17:30 MST2.09P  11.6P  0.00P  
07/23/2015 17:45 MST2.10P  12.1P  0.08P  
07/23/2015 18:00 MST2.14P  14.2P  0.31P  
07/23/2015 18:15 MST2.16P  15.4P  0.03P  
07/23/2015 18:30 MST2.15P  14.8P  0.02P  
07/23/2015 18:45 MST2.15P  14.8P  0.01P  
07/23/2015 19:00 MST2.18P  16.6P  0.00P  
07/23/2015 19:15 MST2.20P  17.9P  0.00P  
07/23/2015 19:30 MST2.23P  19.9P  0.00P  
07/23/2015 19:45 MST2.23P  19.9P  0.01P  
07/23/2015 20:00 MST2.20P  17.9P  0.00P  
07/23/2015 20:15 MST2.17P  16.0P  0.00P  
07/23/2015 20:30 MST2.27P  23.0P  0.00P  
07/23/2015 20:45 MST3.11P  130P  0.00P  
07/23/2015 21:00 MST3.78P  304P  0.00P  
07/23/2015 21:15 MST4.04P  396P  0.00P  
07/23/2015 21:30 MST4.00P  380P  0.00P  
07/23/2015 21:45 MST3.92P  350P  0.00P  
07/23/2015 22:00 MST3.80P  307P  0.00P  
07/23/2015 22:15 MST3.67P  268P  0.00P  
07/23/2015 22:30 MST3.49P  216P  0.00P  
07/23/2015 22:45 MST3.38P  187P  0.00P  
07/23/2015 23:00 MST3.27P  163P  0.00P  
07/23/2015 23:15 MST3.20P  148P  0.00P  
07/23/2015 23:30 MST3.14P  136P  0.00P  
07/23/2015 23:45 MST3.04P  116P  0.00P  
07/24/2015 00:00 MST2.96P  102P  0.00P  
07/24/2015 00:15 MST2.89P  92.4P  0.00P  
07/24/2015 00:30 MST2.83P  83.2P  0.00P  
07/24/2015 00:45 MST2.76P  73.3P  0.00P  
07/24/2015 01:00 MST2.69P  64.2P  0.00P  
07/24/2015 01:15 MST2.64P  58.1P  0.00P  
07/24/2015 01:30 MST2.59P  52.4P  0.00P  
07/24/2015 01:45 MST2.56P  49.2P  0.00P  
07/24/2015 02:00 MST2.51P  44.1P  0.00P  
07/24/2015 02:15 MST2.47P  40.3P  0.00P  
07/24/2015 02:30 MST2.43P  36.5P  0.00P  
07/24/2015 02:45 MST2.41P  34.7P  0.00P  
07/24/2015 03:00 MST2.38P  32.2P  0.00P  
07/24/2015 03:15 MST2.33P  27.9P  0.00P  
07/24/2015 03:30 MST2.31P  26.3P  0.01P  
07/24/2015 03:45 MST2.30P  25.4P  0.00P  
07/24/2015 04:00 MST2.27P  23.0P  0.00P  
07/24/2015 04:15 MST2.25P  21.4P  0.00P  
07/24/2015 04:30 MST2.26P  22.2P  0.00P  
07/24/2015 04:45 MST2.23P  19.9P  0.00P  
07/24/2015 05:00 MST2.22P  19.2P  0.00P  
07/24/2015 05:15 MST2.21P  18.5P  0.00P  
07/24/2015 05:30 MST2.20P  17.9P  0.00P  
07/24/2015 05:45 MST2.17P  16.0P  0.00P  
07/24/2015 06:00 MST2.18P  16.6P  0.00P  
07/24/2015 06:15 MST2.16P  15.4P  0.00P  
07/24/2015 06:30 MST2.15P  14.8P  0.00P  
07/24/2015 06:45 MST2.13P  13.6P  0.00P  
07/24/2015 07:00 MST2.15P  14.8P  0.00P  
07/24/2015 07:15 MST2.15P  14.8P  0.00P  
07/24/2015 07:30 MST2.13P  13.6P  0.00P  
07/24/2015 07:45 MST2.13P  13.6P  0.00P  
07/24/2015 08:00 MST2.14P  14.2P  0.00P  
07/24/2015 08:15 MST2.12P  13.1P  0.00P  
07/24/2015 08:30 MST2.11P  12.6P  0.00P  
07/24/2015 08:45 MST2.12P  13.1P  0.00P  
07/24/2015 09:00 MST2.10P  12.1P  0.00P  
07/24/2015 09:15 MST2.11P  12.6P  0.00P  
07/24/2015 09:30 MST2.11P  12.6P  0.00P  
07/24/2015 09:45 MST2.10P  12.1P  0.00P  
07/24/2015 10:00 MST2.11P  12.6P  0.00P  
07/24/2015 10:15 MST2.10P  12.1P  0.00P  
07/24/2015 10:30 MST2.09P  11.6P  0.00P  
07/24/2015 10:45 MST2.09P  11.6P  0.00P  
07/24/2015 11:00 MST2.08P  11.1P  0.00P  
07/24/2015 11:15 MST2.08P  11.1P  0.00P  
07/24/2015 11:30 MST2.09P  11.6P  0.00P  
07/24/2015 11:45 MST2.09P  11.6P  0.00P  
07/24/2015 12:00 MST2.07P  10.6P  0.00P  
07/24/2015 12:15 MST2.08P  11.1P  0.00P  
07/24/2015 12:30 MST2.08P  11.1P  0.00P  
07/24/2015 12:45 MST2.08P  11.1P  0.00P  
07/24/2015 13:00 MST2.08P  11.1P  0.00P  
07/24/2015 13:15 MST2.07P  10.6P  0.00P  
07/24/2015 13:30 MST2.07P  10.6P  0.00P  
07/24/2015 13:45 MST2.07P  10.6P  0.00P  
07/24/2015 14:00 MST2.07P  10.6P  0.00P  
07/24/2015 14:15 MST2.07P  10.6P  0.00P  
07/24/2015 14:30 MST2.07P  10.6P  0.00P  
07/24/2015 14:45 MST2.06P  10.2P  0.00P  
07/24/2015 15:00 MST2.06P  10.2P  0.00P  
07/24/2015 15:15 MST2.06P  10.2P  0.00P  
07/24/2015 15:30 MST2.06P  10.2P  0.00P  
07/24/2015 15:45 MST2.05P  9.74P  0.00P  
07/24/2015 16:00 MST2.05P  9.74P  0.00P  
07/24/2015 16:15 MST2.05P  9.74P  0.00P  
07/24/2015 16:30 MST2.05P  9.74P  0.00P  
07/24/2015 16:45 MST2.05P  9.74P  0.00P  
07/24/2015 17:00 MST2.04P  9.32P  0.00P  
07/24/2015 17:15 MST2.04P  9.32P  0.00P  
07/24/2015 17:30 MST2.04P  9.32P  0.00P  
07/24/2015 17:45 MST2.04P  9.32P  0.00P  
07/24/2015 18:00 MST2.03P  8.91P  0.00P  
07/24/2015 18:15 MST2.04P  9.32P  0.00P  
07/24/2015 18:30 MST2.05P  9.74P  0.00P  
07/24/2015 18:45 MST2.04P  9.32P  0.00P  
07/24/2015 19:00 MST2.04P  9.32P  0.00P  
07/24/2015 19:15 MST2.04P  9.32P  0.00P  
07/24/2015 19:30 MST2.04P  9.32P  0.00P  
07/24/2015 19:45 MST2.04P  9.32P  0.01P  
07/24/2015 20:00 MST2.04P  9.32P  0.01P  
07/24/2015 20:15 MST2.04P  9.32P  0.01P  
07/24/2015 20:30 MST2.04P  9.32P  0.00P  
07/24/2015 20:45 MST2.04P  9.32P  0.00P  
07/24/2015 21:00 MST2.04P  9.32P  0.00P  
07/24/2015 21:15 MST2.04P  9.32P  0.00P  
07/24/2015 21:30 MST2.04P  9.32P  0.00P  
07/24/2015 21:45 MST2.04P  9.32P  0.00P  
07/24/2015 22:00 MST2.04P  9.32P  0.00P  
07/24/2015 22:15 MST2.04P  9.32P  0.00P  
07/24/2015 22:30 MST2.04P  9.32P  0.00P  
07/24/2015 22:45 MST2.04P  9.32P  0.00P  
07/24/2015 23:00 MST2.04P  9.32P  0.00P  
07/24/2015 23:15 MST2.04P  9.32P  0.00P  
07/24/2015 23:30 MST2.04P  9.32P  0.00P  
07/24/2015 23:45 MST2.04P  9.32P  0.00P  
07/25/2015 00:00 MST2.03P  8.91P  0.00P  
07/25/2015 00:15 MST2.03P  8.91P  0.00P  
07/25/2015 00:30 MST2.03P  8.91P  0.00P  
07/25/2015 00:45 MST2.03P  8.91P  0.00P  
07/25/2015 01:00 MST2.03P  8.91P  0.00P  
07/25/2015 01:15 MST2.03P  8.91P  0.00P  
07/25/2015 01:30 MST2.04P  9.32P  0.00P  
07/25/2015 01:45 MST2.03P  8.91P  0.00P  
07/25/2015 02:00 MST2.03P  8.91P  0.00P  
07/25/2015 02:15 MST2.04P  9.32P  0.00P  
07/25/2015 02:30 MST2.03P  8.91P  0.00P  
07/25/2015 02:45 MST2.03P  8.91P  0.00P  
07/25/2015 03:00 MST2.03P  8.91P  0.00P  
07/25/2015 03:15 MST2.03P  8.91P  0.00P  
07/25/2015 03:30 MST2.03P  8.91P  0.00P  
07/25/2015 03:45 MST2.03P  8.91P  0.00P  
07/25/2015 04:00 MST2.03P  8.91P  0.00P  
07/25/2015 04:15 MST2.03P  8.91P  0.00P  
07/25/2015 04:30 MST2.03P  8.91P  0.00P  
07/25/2015 04:45 MST2.03P  8.91P  0.00P  
07/25/2015 05:00 MST2.03P  8.91P  0.00P  
07/25/2015 05:15 MST2.03P  8.91P  0.00P  
07/25/2015 05:30 MST2.03P  8.91P  0.00P  
07/25/2015 05:45 MST2.03P  8.91P  0.00P  
07/25/2015 06:00 MST2.03P  8.91P  0.00P  
07/25/2015 06:15 MST2.03P  8.91P  0.00P  
07/25/2015 06:30 MST2.03P  8.91P  0.00P  
07/25/2015 06:45 MST2.03P  8.91P  0.00P  
07/25/2015 07:00 MST2.03P  8.91P  0.00P  
07/25/2015 07:15 MST2.03P  8.91P  0.00P  
07/25/2015 07:30 MST2.03P  8.91P  0.00P  
07/25/2015 07:45 MST2.03P  8.91P  0.00P  
07/25/2015 08:00 MST2.03P  8.91P  0.00P  
07/25/2015 08:15 MST2.03P  8.91P  0.00P  
07/25/2015 08:30 MST2.03P  8.91P  0.00P  
07/25/2015 08:45 MST2.03P  8.91P  0.00P  
07/25/2015 09:00 MST2.02P  8.51P  0.00P  
07/25/2015 09:15 MST2.02P  8.51P  0.00P  
07/25/2015 09:30 MST2.02P  8.51P  0.00P  
07/25/2015 09:45 MST2.02P  8.51P  0.00P  
07/25/2015 10:00 MST2.03P  8.91P  0.00P  
07/25/2015 10:15 MST2.02P  8.51P  0.00P  
07/25/2015 10:30 MST2.02P  8.51P  0.00P  
07/25/2015 10:45 MST2.02P  8.51P  0.00P  
07/25/2015 10:59 MST2.02P  8.51P  0.00P  
07/25/2015 11:00 MST2.02P  8.51P  0.00P  
07/25/2015 11:14 MST2.02P  8.51P  0.00P  
07/25/2015 11:15 MST2.02P  8.51P  0.00P  
07/25/2015 11:30 MST2.02P  8.51P  0.00P  
07/25/2015 11:45 MST2.02P  8.51P  0.00P  
07/25/2015 12:00 MST2.02P  8.51P  0.00P  
07/25/2015 12:15 MST2.01P  8.12P  0.00P  
07/25/2015 12:30 MST2.02P  8.51P  0.00P  
07/25/2015 12:45 MST2.02P  8.51P  0.00P  
07/25/2015 13:00 MST2.02P  8.51P  0.00P  
07/25/2015 13:15 MST2.01P  8.12P  0.00P  
07/25/2015 13:30 MST2.02P  8.51P  0.00P  
07/25/2015 13:45 MST2.01P  8.12P  0.00P  
07/25/2015 14:00 MST2.01P  8.12P  0.00P  
07/25/2015 14:15 MST2.01P  8.12P  0.00P  
07/25/2015 14:30 MST2.01P  8.12P  0.00P  
07/25/2015 14:45 MST2.00P  7.75P  0.00P  
07/25/2015 15:00 MST2.00P  7.75P  0.00P  
07/25/2015 15:15 MST2.00P  7.75P  0.00P  
07/25/2015 15:30 MST2.00P  7.75P  0.00P  
07/25/2015 15:45 MST2.00P  7.75P  0.00P  
07/25/2015 16:00 MST2.00P  7.75P  0.00P  
07/25/2015 16:15 MST2.00P  7.75P  0.00P  
07/25/2015 16:30 MST2.01P  8.12P  0.00P  
07/25/2015 16:45 MST2.02P  8.51P  0.00P  
07/25/2015 17:00 MST2.04P  9.32P  0.00P  
07/25/2015 17:15 MST2.06P  10.2P  0.00P  
07/25/2015 17:30 MST2.08P  11.1P  0.00P  
07/25/2015 17:45 MST2.09P  11.6P  0.00P  
07/25/2015 18:00 MST2.10P  12.1P  0.00P  
07/25/2015 18:15 MST2.11P  12.6P  0.00P  
07/25/2015 18:30 MST2.10P  12.1P  0.00P  
07/25/2015 18:45 MST2.10P  12.1P  0.00P  
07/25/2015 19:00 MST2.11P  12.6P  0.00P  
07/25/2015 19:15 MST2.11P  12.6P  0.00P  
07/25/2015 19:30 MST2.12P  13.1P  0.00P  
07/25/2015 19:45 MST2.12P  13.1P  0.00P  
07/25/2015 20:00 MST2.12P  13.1P  0.00P  
07/25/2015 20:15 MST2.11P  12.6P  0.00P  
07/25/2015 20:30 MST2.12P  13.1P  0.00P  
07/25/2015 20:45 MST2.12P  13.1P  0.00P  
07/25/2015 21:00 MST2.12P  13.1P  0.00P  
07/25/2015 21:15 MST2.12P  13.1P  0.00P  
07/25/2015 21:30 MST2.11P  12.6P  0.00P  
07/25/2015 21:45 MST2.12P  13.1P  0.00P  
07/25/2015 22:00 MST2.12P  13.1P  0.00P  
07/25/2015 22:15 MST2.11P  12.6P  0.00P  
07/25/2015 22:30 MST2.11P  12.6P  0.00P  
07/25/2015 22:45 MST2.11P  12.6P  0.00P  
07/25/2015 23:00 MST2.11P  12.6P  0.00P  
07/25/2015 23:15 MST2.11P  12.6P  0.00P  
07/25/2015 23:30 MST2.11P  12.6P  0.00P  
07/25/2015 23:45 MST2.11P  12.6P  0.00P  
07/26/2015 00:00 MST2.11P  12.6P  0.00P  
07/26/2015 00:15 MST2.10P  12.1P  0.00P  
07/26/2015 00:30 MST2.10P  12.1P  0.00P  
07/26/2015 00:45 MST2.10P  12.1P  0.00P  
07/26/2015 01:00 MST2.10P  12.1P  0.00P  
07/26/2015 01:15 MST2.10P  12.1P  0.00P  
07/26/2015 01:30 MST2.09P  11.6P  0.00P  
07/26/2015 01:45 MST2.09P  11.6P  0.00P  
07/26/2015 02:00 MST2.09P  11.6P  0.00P  
07/26/2015 02:15 MST2.08P  11.1P  0.00P  
07/26/2015 02:30 MST2.09P  11.6P  0.00P  
07/26/2015 02:45 MST2.09P  11.6P  0.00P  
07/26/2015 03:00 MST2.09P  11.6P  0.00P  
07/26/2015 03:15 MST2.09P  11.6P  0.00P  
07/26/2015 03:30 MST2.08P  11.1P  0.00P  
07/26/2015 03:45 MST2.08P  11.1P  0.00P  
07/26/2015 04:00 MST2.08P  11.1P  0.00P  
07/26/2015 04:15 MST2.08P  11.1P  0.00P  
07/26/2015 04:30 MST2.08P  11.1P  0.00P  
07/26/2015 04:45 MST2.08P  11.1P  0.00P  
07/26/2015 05:00 MST2.08P  11.1P  0.00P  
07/26/2015 05:15 MST2.08P  11.1P  0.00P  
07/26/2015 05:30 MST2.08P  11.1P  0.00P  
07/26/2015 05:45 MST2.07P  10.6P  0.00P  
07/26/2015 06:00 MST2.07P  10.6P  0.00P  
07/26/2015 06:15 MST2.07P  10.6P  0.00P  
07/26/2015 06:30 MST2.07P  10.6P  0.00P  
07/26/2015 06:45 MST2.07P  10.6P  0.00P  
07/26/2015 07:00 MST2.07P  10.6P  0.00P  
07/26/2015 07:15 MST2.07P  10.6P  0.00P  
07/26/2015 07:30 MST2.06P  10.2P  0.00P  
07/26/2015 07:45 MST2.06P  10.2P  0.00P  
07/26/2015 08:00 MST2.06P  10.2P  0.00P  
07/26/2015 08:15 MST2.06P  10.2P  0.00P  
07/26/2015 08:30 MST2.06P  10.2P  0.00P  
07/26/2015 08:45 MST2.06P  10.2P  0.00P  
07/26/2015 09:00 MST2.05P  9.74P  0.00P  
07/26/2015 09:15 MST2.05P  9.74P  0.00P  
07/26/2015 09:30 MST2.05P  9.74P  0.00P  
07/26/2015 09:45 MST2.05P  9.74P  0.00P  
07/26/2015 10:00 MST2.05P  9.74P  0.00P  
07/26/2015 10:15 MST2.05P  9.74P  0.00P  
07/26/2015 10:30 MST2.05P  9.74P  0.00P  
07/26/2015 10:45 MST2.04P  9.32P  0.00P  
07/26/2015 11:00 MST2.04P  9.32P  0.00P  
07/26/2015 11:15 MST2.04P  9.32P  0.00P  
07/26/2015 11:30 MST2.03P  8.91P  0.00P  
07/26/2015 11:45 MST2.03P  8.91P  0.00P  
07/26/2015 12:00 MST2.03P  8.91P  0.00P  
07/26/2015 12:15 MST2.03P  8.91P  0.00P  
07/26/2015 12:30 MST2.03P  8.91P  0.00P  
07/26/2015 12:45 MST2.03P  8.91P  0.00P  
07/26/2015 13:00 MST2.02P  8.51P  0.00P  
07/26/2015 13:15 MST2.03P  8.91P  0.00P  
07/26/2015 13:30 MST2.02P  8.51P  0.00P  
07/26/2015 13:45 MST2.02P  8.51P  0.00P  
07/26/2015 14:00 MST2.02P  8.51P  0.00P  
07/26/2015 14:15 MST2.02P  8.51P  0.00P  
07/26/2015 14:30 MST2.01P  8.12P  0.00P  
07/26/2015 14:45 MST2.01P  8.12P  0.00P  
07/26/2015 15:00 MST2.01P  8.12P  0.00P  
07/26/2015 15:15 MST2.01P  8.12P  0.00P  
07/26/2015 15:30 MST2.01P  8.12P  0.00P  
07/26/2015 15:45 MST2.01P  8.12P  0.00P  
07/26/2015 16:00 MST      0.00P  
07/26/2015 16:15 MST      0.00P  
07/26/2015 16:30 MST2.00P  7.75P  0.00P  
07/26/2015 16:45 MST2.00P  7.75P  0.00P  
07/26/2015 17:00 MST1.99P  7.39P  0.00P  
07/26/2015 17:15 MST2.00P  7.75P  0.00P  
07/26/2015 17:30 MST2.00P  7.75P  0.00P  
07/26/2015 17:45 MST2.00P  7.75P  0.00P  
07/26/2015 18:00 MST1.99P  7.39P  0.00P  
07/26/2015 18:15 MST1.99P  7.39P  0.00P  
07/26/2015 18:30 MST1.99P  7.39P  0.00P  
07/26/2015 18:45 MST1.99P  7.39P  0.00P  
07/26/2015 19:00 MST2.00P  7.75P  0.00P  
07/26/2015 19:15 MST1.99P  7.39P  0.00P  
07/26/2015 19:30 MST1.99P  7.39P  0.00P  
07/26/2015 19:45 MST2.00P  7.75P  0.00P  
07/26/2015 20:00 MST2.00P  7.75P  0.00P  
07/26/2015 20:15 MST1.99P  7.39P  0.00P  
07/26/2015 20:30 MST1.99P  7.39P  0.00P  
07/26/2015 20:45 MST2.00P  7.75P  0.00P  
07/26/2015 21:00 MST1.99P  7.39P  0.00P  
07/26/2015 21:15 MST2.00P  7.75P  0.00P  
07/26/2015 21:30 MST2.00P  7.75P  0.00P  
07/26/2015 21:45 MST2.00P  7.75P  0.00P  
07/26/2015 22:00 MST2.00P  7.75P  0.00P  
07/26/2015 22:15 MST2.00P  7.75P  0.00P  
07/26/2015 22:30 MST2.00P  7.75P  0.00P  
07/26/2015 22:45 MST2.00P  7.75P  0.00P  
07/26/2015 23:00 MST2.00P  7.75P  0.00P  
07/26/2015 23:15 MST2.00P  7.75P  0.00P  
07/26/2015 23:30 MST2.00P  7.75P  0.00P  
07/26/2015 23:45 MST2.00P  7.75P  0.00P  
07/27/2015 00:00 MST1.99P  7.39P  0.00P  
07/27/2015 00:15 MST1.99P  7.39P  0.00P  
07/27/2015 00:30 MST1.99P  7.39P  0.00P  
07/27/2015 00:45 MST2.00P  7.75P  0.00P  
07/27/2015 01:00 MST2.00P  7.75P  0.00P  
07/27/2015 01:15 MST2.00P  7.75P  0.00P  
07/27/2015 01:30 MST2.00P  7.75P  0.00P  
07/27/2015 01:45 MST2.00P  7.75P  0.00P  
07/27/2015 02:00 MST2.00P  7.75P  0.00P  
07/27/2015 02:15 MST1.99P  7.39P  0.00P  
07/27/2015 02:30 MST1.99P  7.39P  0.00P  
07/27/2015 02:45 MST1.99P  7.39P  0.00P  
07/27/2015 03:00 MST1.99P  7.39P  0.00P  
07/27/2015 03:15 MST2.00P  7.75P  0.00P  
07/27/2015 03:30 MST1.99P  7.39P  0.00P  
07/27/2015 03:45 MST1.99P  7.39P  0.00P  
07/27/2015 04:00 MST1.99P  7.39P  0.00P  
07/27/2015 04:15 MST1.99P  7.39P  0.00P  
07/27/2015 04:30 MST1.99P  7.39P  0.00P  
07/27/2015 04:45 MST1.99P  7.39P  0.00P  
07/27/2015 05:00 MST1.99P  7.39P  0.00P  
07/27/2015 05:15 MST1.99P  7.39P  0.00P  
07/27/2015 05:30 MST1.99P  7.39P  0.00P  
07/27/2015 05:45 MST2.00P  7.75P  0.00P  
07/27/2015 06:00 MST1.99P  7.39P  0.00P  
07/27/2015 06:15 MST2.00P  7.75P  0.00P  
07/27/2015 06:30 MST1.99P  7.39P  0.00P  
07/27/2015 06:45 MST1.99P  7.39P  0.00P  
07/27/2015 07:00 MST1.99P  7.39P  0.00P  
07/27/2015 07:15 MST1.99P  7.39P  0.00P  
07/27/2015 07:30 MST2.00P  7.75P  0.00P  
07/27/2015 07:45 MST1.99P  7.39P  0.00P  
07/27/2015 08:00 MST1.99P  7.39P  0.00P  
07/27/2015 08:15 MST1.99P  7.39P  0.00P  
07/27/2015 08:30 MST1.99P  7.39P  0.00P  
07/27/2015 08:45 MST1.99P  7.39P  0.00P  
07/27/2015 09:00 MST1.99P  7.39P  0.00P  
07/27/2015 09:15 MST1.99P  7.39P  0.00P  
07/27/2015 09:30 MST1.99P  7.39P  0.00P  
07/27/2015 09:45 MST1.99P  7.39P  0.00P  
07/27/2015 10:00 MST1.99P  7.39P  0.00P  
07/27/2015 10:15 MST1.99P  7.39P  0.00P  
07/27/2015 10:30 MST1.99P  7.39P  0.00P  
07/27/2015 10:45 MST1.99P  7.39P  0.00P  
07/27/2015 11:00 MST1.99P  7.39P  0.00P  
07/27/2015 11:15 MST1.99P  7.39P  0.00P  
07/27/2015 11:30 MST1.98P  7.04P  0.00P  
07/27/2015 11:45 MST1.98P  7.04P  0.00P  
07/27/2015 12:00 MST1.98P  7.04P  0.00P  
07/27/2015 12:15 MST1.98P  7.04P  0.00P  
07/27/2015 12:30 MST1.98P  7.04P  0.00P  
07/27/2015 12:45 MST1.98P  7.04P  0.00P  
07/27/2015 13:00 MST1.98P  7.04P  0.00P  
07/27/2015 13:15 MST1.98P  7.04P  0.00P  
07/27/2015 13:30 MST1.97P  6.71P  0.00P  
07/27/2015 13:45 MST1.97P  6.71P  0.00P  
07/27/2015 14:00 MST1.97P  6.71P  0.00P  
07/27/2015 14:15 MST1.97P  6.71P  0.00P  
07/27/2015 14:30 MST1.97P  6.71P  0.00P  
07/27/2015 14:45 MST1.97P  6.71P  0.00P  
07/27/2015 15:00 MST1.96P  6.39P  0.00P  
07/27/2015 15:15 MST1.96P  6.39P  0.00P  
07/27/2015 15:30 MST1.96P  6.39P  0.00P  
07/27/2015 15:45 MST1.96P  6.39P  0.00P  
07/27/2015 16:00 MST1.96P  6.39P  0.00P  
07/27/2015 16:15 MST1.96P  6.39P  0.00P  
07/27/2015 16:30 MST1.96P  6.39P  0.00P  
07/27/2015 16:45 MST1.96P  6.39P  0.00P  
07/27/2015 17:00 MST1.96P  6.39P  0.00P  
07/27/2015 17:15 MST1.96P  6.39P  0.00P  
07/27/2015 17:30 MST1.96P  6.39P  0.00P  
07/27/2015 17:45 MST1.96P  6.39P  0.00P  
07/27/2015 18:00 MST1.96P  6.39P  0.00P  
07/27/2015 18:15 MST1.96P  6.39P  0.00P  
07/27/2015 18:30 MST1.96P  6.39P  0.00P  
07/27/2015 18:45 MST1.96P  6.39P  0.00P  
07/27/2015 19:00 MST1.96P  6.39P  0.00P  
07/27/2015 19:15 MST1.95P  6.07P  0.00P  
07/27/2015 19:30 MST1.96P  6.39P  0.00P  
07/27/2015 19:45 MST1.96P  6.39P  0.00P  
07/27/2015 20:00 MST1.96P  6.39P  0.00P  
07/27/2015 20:15 MST1.96P  6.39P  0.00P  
07/27/2015 20:30 MST1.96P  6.39P  0.00P  
07/27/2015 20:45 MST1.96P  6.39P  0.00P  
07/27/2015 21:00 MST1.96P  6.39P  0.00P  
07/27/2015 21:15 MST1.96P  6.39P  0.00P  
07/27/2015 21:30 MST1.96P  6.39P  0.00P  
07/27/2015 21:45 MST1.96P  6.39P  0.00P  
07/27/2015 22:00 MST1.96P  6.39P  0.00P  
07/27/2015 22:15 MST1.96P  6.39P  0.00P  
07/27/2015 22:30 MST1.96P  6.39P  0.00P  
07/27/2015 22:45 MST1.96P  6.39P  0.00P  
07/27/2015 23:00 MST1.96P  6.39P  0.00P  
07/27/2015 23:15 MST1.96P  6.39P  0.00P  
07/27/2015 23:30 MST1.96P  6.39P  0.00P  
07/27/2015 23:45 MST1.96P  6.39P  0.00P  
07/28/2015 00:00 MST1.96P  6.39P  0.00P  
07/28/2015 00:15 MST1.97P  6.71P  0.00P  
07/28/2015 00:30 MST1.96P  6.39P  0.00P  
07/28/2015 00:45 MST1.96P  6.39P  0.00P  
07/28/2015 01:00 MST1.97P  6.71P  0.00P  
07/28/2015 01:15 MST1.97P  6.71P  0.00P  
07/28/2015 01:30 MST1.96P  6.39P  0.00P  
07/28/2015 01:45 MST1.97P  6.71P  0.00P  
07/28/2015 02:00 MST1.97P  6.71P  0.00P  
07/28/2015 02:15 MST1.97P  6.71P  0.00P  
07/28/2015 02:30 MST1.97P  6.71P  0.00P  
07/28/2015 02:45 MST1.96P  6.39P  0.00P  
07/28/2015 03:00 MST1.97P  6.71P  0.00P  
07/28/2015 03:15 MST1.97P  6.71P  0.00P  
07/28/2015 03:30 MST1.97P  6.71P  0.00P  
07/28/2015 03:45 MST1.97P  6.71P  0.00P  
07/28/2015 04:00 MST1.97P  6.71P  0.00P  
07/28/2015 04:15 MST1.97P  6.71P  0.00P  
07/28/2015 04:30 MST1.97P  6.71P  0.00P  
07/28/2015 04:45 MST1.97P  6.71P  0.00P  
07/28/2015 05:00 MST1.97P  6.71P  0.00P  
07/28/2015 05:15 MST1.97P  6.71P  0.00P  
07/28/2015 05:30 MST1.98P  7.04P  0.00P  
07/28/2015 05:45 MST1.97P  6.71P  0.00P  
07/28/2015 06:00 MST1.98P  7.04P  0.00P  
07/28/2015 06:15 MST1.97P  6.71P  0.00P  
07/28/2015 06:30 MST1.97P  6.71P  0.00P  
07/28/2015 06:45 MST1.98P  7.04P  0.00P  
07/28/2015 07:00 MST1.98P  7.04P  0.00P  
07/28/2015 07:15 MST1.98P  7.04P  0.00P  
07/28/2015 07:30 MST1.97P  6.71P  0.00P  
07/28/2015 07:45 MST1.98P  7.04P  0.00P  
07/28/2015 08:00 MST1.97P  6.71P  0.00P  
07/28/2015 08:15 MST1.97P  6.71P  0.00P  
07/28/2015 08:30 MST1.97P  6.71P  0.00P  
07/28/2015 08:45 MST1.97P  6.71P  0.00P  
07/28/2015 09:00 MST1.97P  6.71P  0.00P  
07/28/2015 09:15 MST1.97P  6.71P  0.00P  
07/28/2015 09:30 MST1.97P  6.71P  0.00P  
07/28/2015 09:45 MST1.97P  6.71P  0.00P  
07/28/2015 10:00 MST1.97P  6.71P  0.00P  
07/28/2015 10:15 MST1.97P  6.71P  0.00P  
07/28/2015 10:30 MST1.96P  6.39P  0.00P  
07/28/2015 10:45 MST1.97P  6.71P  0.00P  
07/28/2015 11:00 MST1.96P  6.39P  0.00P  
07/28/2015 11:15 MST1.96P  6.39P  0.00P  
07/28/2015 11:30 MST1.96P  6.39P  0.00P  
07/28/2015 11:45 MST1.96P  6.39P  0.00P  
07/28/2015 12:00 MST1.96P  6.39P  0.00P  
07/28/2015 12:15 MST1.96P  6.39P  0.00P  
07/28/2015 12:30 MST1.96P  6.39P  0.00P  
07/28/2015 12:45 MST1.96P  6.39P  0.00P  
07/28/2015 13:00 MST1.95P  6.07P  0.00P  
07/28/2015 13:15 MST1.96P  6.39P  0.00P  
07/28/2015 13:30 MST1.95P  6.07P  0.00P  
07/28/2015 13:45 MST1.95P  6.07P  0.00P  
07/28/2015 14:00 MST1.95P  6.07P  0.00P  
07/28/2015 14:15 MST1.95P  6.07P  0.00P  
07/28/2015 14:30 MST1.94P  5.77P  0.00P  
07/28/2015 14:45 MST1.94P  5.77P  0.00P  
07/28/2015 15:00 MST1.94P  5.77P  0.00P  
07/28/2015 15:15 MST1.95P  6.07P  0.00P  
07/28/2015 15:30 MST1.95P  6.07P  0.00P  
07/28/2015 15:45 MST1.95P  6.07P  0.00P  
07/28/2015 16:00 MST1.94P  5.77P  0.00P  
07/28/2015 16:15 MST1.95P  6.07P  0.00P  
07/28/2015 16:30 MST1.95P  6.07P  0.00P  
07/28/2015 16:45 MST1.95P  6.07P  0.00P  
07/28/2015 17:00 MST1.95P  6.07P  0.00P  
07/28/2015 17:15 MST1.95P  6.07P  0.00P  
07/28/2015 17:30 MST1.95P  6.07P  0.00P  
07/28/2015 17:45 MST1.94P  5.77P  0.00P  
07/28/2015 18:00 MST1.95P  6.07P  0.00P  
07/28/2015 18:15 MST1.95P  6.07P  0.00P  
07/28/2015 18:30 MST1.94P  5.77P  0.00P  
07/28/2015 18:45 MST1.94P  5.77P  0.00P  
07/28/2015 19:00 MST1.94P  5.77P  0.00P  
07/28/2015 19:15 MST1.94P  5.77P  0.00P  
07/28/2015 19:30 MST1.94P  5.77P  0.00P  
07/28/2015 19:45 MST1.93P  5.48P  0.00P  
07/28/2015 20:00 MST1.92P  5.20P  0.00P  
07/28/2015 20:15 MST1.90P  4.67P  0.00P  
07/28/2015 20:30 MST1.94P  5.77P  0.00P  
07/28/2015 20:45 MST1.94P  5.77P  0.00P  
07/28/2015 21:00 MST1.94P  5.77P  0.00P  
07/28/2015 21:15 MST1.94P  5.77P  0.00P  
07/28/2015 21:30 MST1.95P  6.07P  0.00P  
07/28/2015 21:45 MST1.95P  6.07P  0.00P  
07/28/2015 22:00 MST1.95P  6.07P  0.00P  
07/28/2015 22:15 MST1.95P  6.07P  0.00P  
07/28/2015 22:30 MST1.95P  6.07P  0.00P  
07/28/2015 22:45 MST1.95P  6.07P  0.00P  
07/28/2015 23:00 MST1.95P  6.07P  0.00P  
07/28/2015 23:15 MST1.95P  6.07P  0.00P  
07/28/2015 23:30 MST1.95P  6.07P  0.00P  
07/28/2015 23:45 MST1.95P  6.07P  0.00P  
07/29/2015 00:00 MST1.95P  6.07P  0.00P  
07/29/2015 00:15 MST1.95P  6.07P  0.00P  
07/29/2015 00:30 MST1.95P  6.07P  0.00P  
07/29/2015 00:45 MST1.95P  6.07P  0.00P  
07/29/2015 01:00 MST1.95P  6.07P  0.00P  
07/29/2015 01:15 MST1.95P  6.07P  0.00P  
07/29/2015 01:30 MST1.95P  6.07P  0.00P  
07/29/2015 01:45 MST1.96P  6.39P  0.00P  
07/29/2015 02:00 MST1.96P  6.39P  0.00P  
07/29/2015 02:15 MST1.96P  6.39P  0.00P  
07/29/2015 02:30 MST1.95P  6.07P  0.00P  
07/29/2015 02:45 MST1.95P  6.07P  0.00P  
07/29/2015 03:00 MST1.95P  6.07P  0.00P  
07/29/2015 03:15 MST1.96P  6.39P  0.00P  
07/29/2015 03:30 MST1.95P  6.07P  0.00P  
07/29/2015 03:45 MST1.96P  6.39P  0.00P  
07/29/2015 04:00 MST1.96P  6.39P  0.00P  
07/29/2015 04:15 MST1.96P  6.39P  0.00P  
07/29/2015 04:30 MST1.96P  6.39P  0.00P  
07/29/2015 04:45 MST1.96P  6.39P  0.00P  
07/29/2015 05:00 MST1.96P  6.39P  0.00P  
07/29/2015 05:15 MST1.96P  6.39P  0.00P  
07/29/2015 05:30 MST1.96P  6.39P  0.00P  
07/29/2015 05:45 MST1.96P  6.39P  0.00P  
07/29/2015 06:00 MST1.96P  6.39P  0.00P  
07/29/2015 06:15 MST1.96P  6.39P  0.00P  
07/29/2015 06:30 MST1.96P  6.39P  0.00P  
07/29/2015 06:45 MST1.96P  6.39P  0.00P  
07/29/2015 07:00 MST1.96P  6.39P  0.00P  
07/29/2015 07:15 MST1.96P  6.39P  0.00P  
07/29/2015 07:30 MST1.96P  6.39P  0.00P  
07/29/2015 07:45 MST1.96P  6.39P  0.00P  
07/29/2015 08:00 MST1.96P  6.39P  0.00P  
07/29/2015 08:15 MST1.96P  6.39P  0.00P  
07/29/2015 08:30 MST1.96P  6.39P  0.00P  
07/29/2015 08:45 MST1.96P  6.39P  0.00P  
07/29/2015 09:00 MST1.96P  6.39P  0.00P  
07/29/2015 09:15 MST1.96P  6.39P  0.00P  
07/29/2015 09:30 MST1.96P  6.39P  0.00P  
07/29/2015 09:45 MST1.96P  6.39P  0.00P  
07/29/2015 10:00 MST1.96P  6.39P  0.00P  
07/29/2015 10:15 MST1.96P  6.39P  0.00P  
07/29/2015 10:30 MST1.96P  6.39P  0.00P  
07/29/2015 10:45 MST1.96P  6.39P  0.00P  
07/29/2015 10:59 MST1.96P  6.39P  0.00P  
07/29/2015 11:00 MST1.96P  6.39P  0.00P  
07/29/2015 11:14 MST1.96P  6.39P  0.00P  
07/29/2015 11:15 MST1.96P  6.39P  0.00P  
07/29/2015 11:30 MST1.96P  6.39P  0.00P  
07/29/2015 11:45 MST1.96P  6.39P  0.00P  
07/29/2015 12:00 MST1.96P  6.39P  0.00P  
07/29/2015 12:15 MST1.96P  6.39P  0.00P  
07/29/2015 12:30 MST1.96P  6.39P  0.00P  
07/29/2015 12:45 MST1.96P  6.39P  0.00P  
07/29/2015 13:00 MST1.95P  6.07P  0.00P  
07/29/2015 13:15 MST1.95P  6.07P  0.00P  
07/29/2015 13:30 MST1.95P  6.07P  0.00P  
07/29/2015 13:45 MST1.95P  6.07P  0.00P  
07/29/2015 14:00 MST1.95P  6.07P  0.00P  
07/29/2015 14:15 MST1.95P  6.07P  0.00P  
07/29/2015 14:30 MST1.95P  6.07P  0.00P  
07/29/2015 14:45 MST1.94P  5.77P  0.00P  
07/29/2015 15:00 MST1.94P  5.77P  0.00P  
07/29/2015 15:15 MST1.94P  5.77P  0.00P  
07/29/2015 15:30 MST1.94P  5.77P  0.00P  
07/29/2015 15:45 MST1.94P  5.77P  0.00P  
07/29/2015 16:00 MST1.94P  5.77P  0.00P  
07/29/2015 16:15 MST1.94P  5.77P  0.00P  
07/29/2015 16:30 MST1.94P  5.77P  0.00P  
07/29/2015 16:45 MST1.92P  5.20P  0.00P  
07/29/2015 17:00 MST1.94P  5.77P  0.01P  
07/29/2015 17:15 MST1.94P  5.77P  0.04P  
07/29/2015 17:30 MST1.94P  5.77P  0.00P  
07/29/2015 17:45 MST1.95P  6.07P  0.00P  
07/29/2015 18:00 MST1.95P  6.07P  0.00P  
07/29/2015 18:15 MST1.94P  5.77P  0.00P  
07/29/2015 18:30 MST1.94P  5.77P  0.00P  
07/29/2015 18:45 MST1.94P  5.77P  0.00P  
07/29/2015 19:00 MST1.94P  5.77P  0.00P  
07/29/2015 19:15 MST1.94P  5.77P  0.00P  
07/29/2015 19:30 MST1.94P  5.77P  0.00P  
07/29/2015 19:45 MST1.94P  5.77P  0.00P  
07/29/2015 20:00 MST1.94P  5.77P  0.00P  

Explanation
  P  Provisional data subject to revision.